sensor_id;sensor_type;location;lat;lon;timestamp;P1;durP1;ratioP1;P2;durP2;ratioP2
42590;SDS011;28218;53.342;-6.216;2023-09-08T00:01:44;57.10;;;31.92;;
42590;SDS011;28218;53.342;-6.216;2023-09-08T00:04:12;63.55;;;32.15;;
42590;SDS011;28218;53.342;-6.216;2023-09-08T00:06:41;55.40;;;30.50;;
42590;SDS011;28218;53.342;-6.216;2023-09-08T00:09:09;61.38;;;31.35;;
42590;SDS011;28218;53.342;-6.216;2023-09-08T00:11:37;62.25;;;34.35;;
42590;SDS011;28218;53.342;-6.216;2023-09-08T00:14:06;59.03;;;32.40;;
42590;SDS011;28218;53.342;-6.216;2023-09-08T00:16:34;60.47;;;35.13;;
42590;SDS011;28218;53.342;-6.216;2023-09-08T00:19:03;59.97;;;33.05;;
42590;SDS011;28218;53.342;-6.216;2023-09-08T00:21:32;66.40;;;32.97;;
42590;SDS011;28218;53.342;-6.216;2023-09-08T00:24:00;61.50;;;34.83;;
42590;SDS011;28218;53.342;-6.216;2023-09-08T00:26:28;60.42;;;33.00;;
42590;SDS011;28218;53.342;-6.216;2023-09-08T00:28:56;66.20;;;33.65;;
42590;SDS011;28218;53.342;-6.216;2023-09-08T00:31:25;53.90;;;31.02;;
42590;SDS011;28218;53.342;-6.216;2023-09-08T00:33:53;55.15;;;32.30;;
42590;SDS011;28218;53.342;-6.216;2023-09-08T00:36:23;59.33;;;33.35;;
42590;SDS011;28218;53.342;-6.216;2023-09-08T00:38:51;58.72;;;32.60;;
42590;SDS011;28218;53.342;-6.216;2023-09-08T00:41:19;57.80;;;31.50;;
42590;SDS011;28218;53.342;-6.216;2023-09-08T00:43:47;56.30;;;31.38;;
42590;SDS011;28218;53.342;-6.216;2023-09-08T00:46:15;63.17;;;33.97;;
42590;SDS011;28218;53.342;-6.216;2023-09-08T00:48:44;61.83;;;30.88;;
42590;SDS011;28218;53.342;-6.216;2023-09-08T00:51:13;52.47;;;32.78;;
42590;SDS011;28218;53.342;-6.216;2023-09-08T00:53:43;54.65;;;32.10;;
42590;SDS011;28218;53.342;-6.216;2023-09-08T00:56:11;57.70;;;33.75;;
42590;SDS011;28218;53.342;-6.216;2023-09-08T00:58:40;55.03;;;31.02;;
42590;SDS011;28218;53.342;-6.216;2023-09-08T01:01:08;53.65;;;32.05;;
42590;SDS011;28218;53.342;-6.216;2023-09-08T01:03:36;60.58;;;32.50;;
42590;SDS011;28218;53.342;-6.216;2023-09-08T01:06:05;57.05;;;31.60;;
42590;SDS011;28218;53.342;-6.216;2023-09-08T01:08:34;61.35;;;33.20;;
42590;SDS011;28218;53.342;-6.216;2023-09-08T01:11:04;59.63;;;35.22;;
42590;SDS011;28218;53.342;-6.216;2023-09-08T01:13:34;66.00;;;32.83;;
42590;SDS011;28218;53.342;-6.216;2023-09-08T01:16:02;65.47;;;33.47;;
42590;SDS011;28218;53.342;-6.216;2023-09-08T01:18:30;64.72;;;34.45;;
42590;SDS011;28218;53.342;-6.216;2023-09-08T01:21:10;64.10;;;33.40;;
42590;SDS011;28218;53.342;-6.216;2023-09-08T01:23:54;68.03;;;34.85;;
42590;SDS011;28218;53.342;-6.216;2023-09-08T01:26:40;61.90;;;33.95;;
42590;SDS011;28218;53.342;-6.216;2023-09-08T01:29:09;55.22;;;33.15;;
42590;SDS011;28218;53.342;-6.216;2023-09-08T01:31:39;58.85;;;32.28;;
42590;SDS011;28218;53.342;-6.216;2023-09-08T01:34:07;58.58;;;33.70;;
42590;SDS011;28218;53.342;-6.216;2023-09-08T01:36:36;56.13;;;33.33;;
42590;SDS011;28218;53.342;-6.216;2023-09-08T01:39:04;63.92;;;33.08;;
42590;SDS011;28218;53.342;-6.216;2023-09-08T01:41:32;58.67;;;33.35;;
42590;SDS011;28218;53.342;-6.216;2023-09-08T01:44:02;56.15;;;33.20;;
42590;SDS011;28218;53.342;-6.216;2023-09-08T01:46:34;60.67;;;34.30;;
42590;SDS011;28218;53.342;-6.216;2023-09-08T01:49:03;54.03;;;32.67;;
42590;SDS011;28218;53.342;-6.216;2023-09-08T01:51:31;58.88;;;32.25;;
42590;SDS011;28218;53.342;-6.216;2023-09-08T01:53:59;56.08;;;32.53;;
42590;SDS011;28218;53.342;-6.216;2023-09-08T01:56:27;57.13;;;34.45;;
42590;SDS011;28218;53.342;-6.216;2023-09-08T01:58:55;60.75;;;32.80;;
42590;SDS011;28218;53.342;-6.216;2023-09-08T02:01:25;60.30;;;32.72;;
42590;SDS011;28218;53.342;-6.216;2023-09-08T02:03:53;52.83;;;31.52;;
42590;SDS011;28218;53.342;-6.216;2023-09-08T02:06:21;59.55;;;33.55;;
42590;SDS011;28218;53.342;-6.216;2023-09-08T02:08:50;59.90;;;34.92;;
42590;SDS011;28218;53.342;-6.216;2023-09-08T02:11:18;58.08;;;33.05;;
42590;SDS011;28218;53.342;-6.216;2023-09-08T02:13:46;58.00;;;32.95;;
42590;SDS011;28218;53.342;-6.216;2023-09-08T02:16:14;57.60;;;31.95;;
42590;SDS011;28218;53.342;-6.216;2023-09-08T02:18:44;59.95;;;35.10;;
42590;SDS011;28218;53.342;-6.216;2023-09-08T02:21:13;53.70;;;33.10;;
42590;SDS011;28218;53.342;-6.216;2023-09-08T02:23:41;60.60;;;33.85;;
42590;SDS011;28218;53.342;-6.216;2023-09-08T02:26:08;54.83;;;34.35;;
42590;SDS011;28218;53.342;-6.216;2023-09-08T02:28:37;60.42;;;33.05;;
42590;SDS011;28218;53.342;-6.216;2023-09-08T02:31:05;56.25;;;32.85;;
42590;SDS011;28218;53.342;-6.216;2023-09-08T02:33:33;53.40;;;31.48;;
42590;SDS011;28218;53.342;-6.216;2023-09-08T02:36:03;56.35;;;33.50;;
42590;SDS011;28218;53.342;-6.216;2023-09-08T02:38:32;60.28;;;33.10;;
42590;SDS011;28218;53.342;-6.216;2023-09-08T02:41:01;54.08;;;31.85;;
42590;SDS011;28218;53.342;-6.216;2023-09-08T02:43:29;62.85;;;34.15;;
42590;SDS011;28218;53.342;-6.216;2023-09-08T02:45:57;60.03;;;33.20;;
42590;SDS011;28218;53.342;-6.216;2023-09-08T02:48:25;63.45;;;34.70;;
42590;SDS011;28218;53.342;-6.216;2023-09-08T02:50:54;54.83;;;31.73;;
42590;SDS011;28218;53.342;-6.216;2023-09-08T02:53:23;55.97;;;31.92;;
42590;SDS011;28218;53.342;-6.216;2023-09-08T02:55:55;55.35;;;31.15;;
42590;SDS011;28218;53.342;-6.216;2023-09-08T02:58:24;55.67;;;32.63;;
42590;SDS011;28218;53.342;-6.216;2023-09-08T03:00:52;52.53;;;30.10;;
42590;SDS011;28218;53.342;-6.216;2023-09-08T03:03:21;56.50;;;32.35;;
42590;SDS011;28218;53.342;-6.216;2023-09-08T03:05:53;49.70;;;30.23;;
42590;SDS011;28218;53.342;-6.216;2023-09-08T03:08:24;56.05;;;31.00;;
42590;SDS011;28218;53.342;-6.216;2023-09-08T03:10:55;53.05;;;32.25;;
42590;SDS011;28218;53.342;-6.216;2023-09-08T03:13:23;59.67;;;31.10;;
42590;SDS011;28218;53.342;-6.216;2023-09-08T03:15:53;56.53;;;32.38;;
42590;SDS011;28218;53.342;-6.216;2023-09-08T03:18:21;57.47;;;33.08;;
42590;SDS011;28218;53.342;-6.216;2023-09-08T03:20:49;54.65;;;31.77;;
42590;SDS011;28218;53.342;-6.216;2023-09-08T03:23:18;52.05;;;30.63;;
42590;SDS011;28218;53.342;-6.216;2023-09-08T03:25:48;55.75;;;31.60;;
42590;SDS011;28218;53.342;-6.216;2023-09-08T03:28:16;55.33;;;31.00;;
42590;SDS011;28218;53.342;-6.216;2023-09-08T03:30:44;53.38;;;31.35;;
42590;SDS011;28218;53.342;-6.216;2023-09-08T03:33:13;52.30;;;32.25;;
42590;SDS011;28218;53.342;-6.216;2023-09-08T03:35:41;59.05;;;33.75;;
42590;SDS011;28218;53.342;-6.216;2023-09-08T03:38:09;51.75;;;31.10;;
42590;SDS011;28218;53.342;-6.216;2023-09-08T03:40:37;57.67;;;33.95;;
42590;SDS011;28218;53.342;-6.216;2023-09-08T03:43:07;53.28;;;33.33;;
42590;SDS011;28218;53.342;-6.216;2023-09-08T03:45:35;52.17;;;30.83;;
42590;SDS011;28218;53.342;-6.216;2023-09-08T03:48:03;52.97;;;33.58;;
42590;SDS011;28218;53.342;-6.216;2023-09-08T03:50:32;55.95;;;31.33;;
42590;SDS011;28218;53.342;-6.216;2023-09-08T03:53:00;54.60;;;32.22;;
42590;SDS011;28218;53.342;-6.216;2023-09-08T03:55:28;55.00;;;34.30;;
42590;SDS011;28218;53.342;-6.216;2023-09-08T03:57:57;57.28;;;33.05;;
42590;SDS011;28218;53.342;-6.216;2023-09-08T04:00:26;56.97;;;32.78;;
42590;SDS011;28218;53.342;-6.216;2023-09-08T04:02:54;56.08;;;32.25;;
42590;SDS011;28218;53.342;-6.216;2023-09-08T04:05:23;52.03;;;31.48;;
42590;SDS011;28218;53.342;-6.216;2023-09-08T04:07:51;56.00;;;33.03;;
42590;SDS011;28218;53.342;-6.216;2023-09-08T04:10:20;59.90;;;32.78;;
42590;SDS011;28218;53.342;-6.216;2023-09-08T04:12:48;54.28;;;31.70;;
42590;SDS011;28218;53.342;-6.216;2023-09-08T04:15:16;53.95;;;32.03;;
42590;SDS011;28218;53.342;-6.216;2023-09-08T04:17:46;59.67;;;34.00;;
42590;SDS011;28218;53.342;-6.216;2023-09-08T04:20:14;56.25;;;32.33;;
42590;SDS011;28218;53.342;-6.216;2023-09-08T04:22:43;50.67;;;31.35;;
42590;SDS011;28218;53.342;-6.216;2023-09-08T04:25:11;51.50;;;31.23;;
42590;SDS011;28218;53.342;-6.216;2023-09-08T04:27:39;56.88;;;30.60;;
42590;SDS011;28218;53.342;-6.216;2023-09-08T04:30:08;51.15;;;30.85;;
42590;SDS011;28218;53.342;-6.216;2023-09-08T04:32:36;49.55;;;29.25;;
42590;SDS011;28218;53.342;-6.216;2023-09-08T04:35:07;49.55;;;30.10;;
42590;SDS011;28218;53.342;-6.216;2023-09-08T04:37:36;57.13;;;31.93;;
42590;SDS011;28218;53.342;-6.216;2023-09-08T04:40:05;53.63;;;30.33;;
42590;SDS011;28218;53.342;-6.216;2023-09-08T04:42:34;49.97;;;30.25;;
42590;SDS011;28218;53.342;-6.216;2023-09-08T04:45:03;51.05;;;29.08;;
42590;SDS011;28218;53.342;-6.216;2023-09-08T04:47:32;54.22;;;28.98;;
42590;SDS011;28218;53.342;-6.216;2023-09-08T04:50:00;49.85;;;29.05;;
42590;SDS011;28218;53.342;-6.216;2023-09-08T04:52:30;49.47;;;29.73;;
42590;SDS011;28218;53.342;-6.216;2023-09-08T04:54:58;46.47;;;28.55;;
42590;SDS011;28218;53.342;-6.216;2023-09-08T04:57:26;47.65;;;28.05;;
42590;SDS011;28218;53.342;-6.216;2023-09-08T04:59:55;49.60;;;29.45;;
42590;SDS011;28218;53.342;-6.216;2023-09-08T05:02:23;49.83;;;28.13;;
42590;SDS011;28218;53.342;-6.216;2023-09-08T05:04:51;57.88;;;30.95;;
42590;SDS011;28218;53.342;-6.216;2023-09-08T05:07:20;50.75;;;30.13;;
42590;SDS011;28218;53.342;-6.216;2023-09-08T05:09:49;51.53;;;29.50;;
42590;SDS011;28218;53.342;-6.216;2023-09-08T05:12:19;47.55;;;29.95;;
42590;SDS011;28218;53.342;-6.216;2023-09-08T05:14:48;48.92;;;27.38;;
42590;SDS011;28218;53.342;-6.216;2023-09-08T05:17:16;54.13;;;29.58;;
42590;SDS011;28218;53.342;-6.216;2023-09-08T05:19:44;46.53;;;29.15;;
42590;SDS011;28218;53.342;-6.216;2023-09-08T05:22:12;45.88;;;28.20;;
42590;SDS011;28218;53.342;-6.216;2023-09-08T05:24:40;49.00;;;28.60;;
42590;SDS011;28218;53.342;-6.216;2023-09-08T05:27:10;48.50;;;28.52;;
42590;SDS011;28218;53.342;-6.216;2023-09-08T05:29:38;47.65;;;28.85;;
42590;SDS011;28218;53.342;-6.216;2023-09-08T05:32:06;50.33;;;31.02;;
42590;SDS011;28218;53.342;-6.216;2023-09-08T05:34:34;44.25;;;28.67;;
42590;SDS011;28218;53.342;-6.216;2023-09-08T05:37:03;49.03;;;29.45;;
42590;SDS011;28218;53.342;-6.216;2023-09-08T05:39:31;50.00;;;27.77;;
42590;SDS011;28218;53.342;-6.216;2023-09-08T05:41:59;45.78;;;29.08;;
42590;SDS011;28218;53.342;-6.216;2023-09-08T05:44:29;50.00;;;28.38;;
42590;SDS011;28218;53.342;-6.216;2023-09-08T05:46:57;49.67;;;28.63;;
42590;SDS011;28218;53.342;-6.216;2023-09-08T05:49:25;45.33;;;28.00;;
42590;SDS011;28218;53.342;-6.216;2023-09-08T05:51:54;48.33;;;29.17;;
42590;SDS011;28218;53.342;-6.216;2023-09-08T05:54:22;55.10;;;31.25;;
42590;SDS011;28218;53.342;-6.216;2023-09-08T05:56:50;45.65;;;28.63;;
42590;SDS011;28218;53.342;-6.216;2023-09-08T05:59:18;51.67;;;29.42;;
42590;SDS011;28218;53.342;-6.216;2023-09-08T06:01:47;47.40;;;30.23;;
42590;SDS011;28218;53.342;-6.216;2023-09-08T06:04:16;59.80;;;32.10;;
42590;SDS011;28218;53.342;-6.216;2023-09-08T06:06:44;54.67;;;33.78;;
42590;SDS011;28218;53.342;-6.216;2023-09-08T06:09:12;54.08;;;33.58;;
42590;SDS011;28218;53.342;-6.216;2023-09-08T06:11:42;60.80;;;34.53;;
42590;SDS011;28218;53.342;-6.216;2023-09-08T06:14:11;51.92;;;32.40;;
42590;SDS011;28218;53.342;-6.216;2023-09-08T06:16:39;53.45;;;33.20;;
42590;SDS011;28218;53.342;-6.216;2023-09-08T06:19:11;52.38;;;31.40;;
42590;SDS011;28218;53.342;-6.216;2023-09-08T06:21:39;50.47;;;31.63;;
42590;SDS011;28218;53.342;-6.216;2023-09-08T06:24:08;51.22;;;31.25;;
42590;SDS011;28218;53.342;-6.216;2023-09-08T06:26:36;50.08;;;31.45;;
42590;SDS011;28218;53.342;-6.216;2023-09-08T06:29:05;52.28;;;32.38;;
42590;SDS011;28218;53.342;-6.216;2023-09-08T06:31:33;49.22;;;32.22;;
42590;SDS011;28218;53.342;-6.216;2023-09-08T06:34:01;58.35;;;32.38;;
42590;SDS011;28218;53.342;-6.216;2023-09-08T06:36:31;46.72;;;29.67;;
42590;SDS011;28218;53.342;-6.216;2023-09-08T06:38:59;57.60;;;32.17;;
42590;SDS011;28218;53.342;-6.216;2023-09-08T06:41:27;56.45;;;31.25;;
42590;SDS011;28218;53.342;-6.216;2023-09-08T06:43:55;52.00;;;30.33;;
42590;SDS011;28218;53.342;-6.216;2023-09-08T06:46:24;51.53;;;30.70;;
42590;SDS011;28218;53.342;-6.216;2023-09-08T06:48:52;52.15;;;30.27;;
42590;SDS011;28218;53.342;-6.216;2023-09-08T06:51:20;57.88;;;31.70;;
42590;SDS011;28218;53.342;-6.216;2023-09-08T06:53:55;58.08;;;31.73;;
42590;SDS011;28218;53.342;-6.216;2023-09-08T06:56:24;55.03;;;31.90;;
42590;SDS011;28218;53.342;-6.216;2023-09-08T06:58:52;52.47;;;32.13;;
42590;SDS011;28218;53.342;-6.216;2023-09-08T07:01:20;48.90;;;31.73;;
42590;SDS011;28218;53.342;-6.216;2023-09-08T07:03:49;56.30;;;33.25;;
42590;SDS011;28218;53.342;-6.216;2023-09-08T07:06:20;57.95;;;32.03;;
42590;SDS011;28218;53.342;-6.216;2023-09-08T07:08:49;56.03;;;31.95;;
42590;SDS011;28218;53.342;-6.216;2023-09-08T07:11:19;53.92;;;31.30;;
42590;SDS011;28218;53.342;-6.216;2023-09-08T07:13:47;49.67;;;32.03;;
42590;SDS011;28218;53.342;-6.216;2023-09-08T07:16:15;53.13;;;33.25;;
42590;SDS011;28218;53.342;-6.216;2023-09-08T07:18:43;57.63;;;32.92;;
42590;SDS011;28218;53.342;-6.216;2023-09-08T07:21:11;54.20;;;32.22;;
42590;SDS011;28218;53.342;-6.216;2023-09-08T07:23:39;52.95;;;31.83;;
42590;SDS011;28218;53.342;-6.216;2023-09-08T07:26:08;51.97;;;32.70;;
42590;SDS011;28218;53.342;-6.216;2023-09-08T07:28:38;56.35;;;34.13;;
42590;SDS011;28218;53.342;-6.216;2023-09-08T07:31:06;62.28;;;33.00;;
42590;SDS011;28218;53.342;-6.216;2023-09-08T07:33:36;62.78;;;32.67;;
42590;SDS011;28218;53.342;-6.216;2023-09-08T07:36:04;57.35;;;33.88;;
42590;SDS011;28218;53.342;-6.216;2023-09-08T07:38:33;57.30;;;33.72;;
42590;SDS011;28218;53.342;-6.216;2023-09-08T07:41:02;56.58;;;32.97;;
42590;SDS011;28218;53.342;-6.216;2023-09-08T07:43:30;54.67;;;32.40;;
42590;SDS011;28218;53.342;-6.216;2023-09-08T07:46:00;56.50;;;34.28;;
42590;SDS011;28218;53.342;-6.216;2023-09-08T07:48:28;57.15;;;34.00;;
42590;SDS011;28218;53.342;-6.216;2023-09-08T07:50:57;61.10;;;35.10;;
42590;SDS011;28218;53.342;-6.216;2023-09-08T07:53:26;54.30;;;33.78;;
42590;SDS011;28218;53.342;-6.216;2023-09-08T07:55:55;58.63;;;35.42;;
42590;SDS011;28218;53.342;-6.216;2023-09-08T07:58:23;53.20;;;33.55;;
42590;SDS011;28218;53.342;-6.216;2023-09-08T08:00:51;57.35;;;34.22;;
42590;SDS011;28218;53.342;-6.216;2023-09-08T08:03:20;58.42;;;35.85;;
42590;SDS011;28218;53.342;-6.216;2023-09-08T08:05:48;60.65;;;36.28;;
42590;SDS011;28218;53.342;-6.216;2023-09-08T08:08:16;59.03;;;35.20;;
42590;SDS011;28218;53.342;-6.216;2023-09-08T08:10:45;61.25;;;35.17;;
42590;SDS011;28218;53.342;-6.216;2023-09-08T08:13:13;60.47;;;33.88;;
42590;SDS011;28218;53.342;-6.216;2023-09-08T08:15:41;60.25;;;34.95;;
42590;SDS011;28218;53.342;-6.216;2023-09-08T08:18:09;63.17;;;34.55;;
42590;SDS011;28218;53.342;-6.216;2023-09-08T08:20:39;53.95;;;34.53;;
42590;SDS011;28218;53.342;-6.216;2023-09-08T08:23:07;56.17;;;35.63;;
42590;SDS011;28218;53.342;-6.216;2023-09-08T08:25:36;65.63;;;35.67;;
42590;SDS011;28218;53.342;-6.216;2023-09-08T08:28:04;58.38;;;33.40;;
42590;SDS011;28218;53.342;-6.216;2023-09-08T08:30:32;51.45;;;32.17;;
42590;SDS011;28218;53.342;-6.216;2023-09-08T08:33:02;53.30;;;31.52;;
42590;SDS011;28218;53.342;-6.216;2023-09-08T08:35:30;51.88;;;31.95;;
42590;SDS011;28218;53.342;-6.216;2023-09-08T08:38:00;50.90;;;32.00;;
42590;SDS011;28218;53.342;-6.216;2023-09-08T08:40:28;57.97;;;34.28;;
42590;SDS011;28218;53.342;-6.216;2023-09-08T08:42:57;51.80;;;33.03;;
42590;SDS011;28218;53.342;-6.216;2023-09-08T08:45:28;55.05;;;30.88;;
42590;SDS011;28218;53.342;-6.216;2023-09-08T08:47:57;48.60;;;29.92;;
42590;SDS011;28218;53.342;-6.216;2023-09-08T08:50:27;51.47;;;28.90;;
42590;SDS011;28218;53.342;-6.216;2023-09-08T08:52:57;48.00;;;28.05;;
42590;SDS011;28218;53.342;-6.216;2023-09-08T08:55:27;52.63;;;28.65;;
42590;SDS011;28218;53.342;-6.216;2023-09-08T08:58:00;47.97;;;27.60;;
42590;SDS011;28218;53.342;-6.216;2023-09-08T09:00:33;50.70;;;29.35;;
42590;SDS011;28218;53.342;-6.216;2023-09-08T09:03:04;43.83;;;28.10;;
42590;SDS011;28218;53.342;-6.216;2023-09-08T09:05:41;42.17;;;27.50;;
42590;SDS011;28218;53.342;-6.216;2023-09-08T09:08:29;38.17;;;26.23;;
42590;SDS011;28218;53.342;-6.216;2023-09-08T09:11:00;43.67;;;27.98;;
42590;SDS011;28218;53.342;-6.216;2023-09-08T09:13:29;43.90;;;27.40;;
42590;SDS011;28218;53.342;-6.216;2023-09-08T09:15:58;47.92;;;26.67;;
42590;SDS011;28218;53.342;-6.216;2023-09-08T09:18:29;46.50;;;27.17;;
42590;SDS011;28218;53.342;-6.216;2023-09-08T09:20:58;48.55;;;29.00;;
42590;SDS011;28218;53.342;-6.216;2023-09-08T09:23:28;40.47;;;26.20;;
42590;SDS011;28218;53.342;-6.216;2023-09-08T09:25:57;43.08;;;27.45;;
42590;SDS011;28218;53.342;-6.216;2023-09-08T09:28:29;43.67;;;25.95;;
42590;SDS011;28218;53.342;-6.216;2023-09-08T09:30:57;41.72;;;24.80;;
42590;SDS011;28218;53.342;-6.216;2023-09-08T09:33:26;36.42;;;23.10;;
42590;SDS011;28218;53.342;-6.216;2023-09-08T09:35:56;46.10;;;25.83;;
42590;SDS011;28218;53.342;-6.216;2023-09-08T09:38:25;39.00;;;24.17;;
42590;SDS011;28218;53.342;-6.216;2023-09-08T09:40:54;38.15;;;24.63;;
42590;SDS011;28218;53.342;-6.216;2023-09-08T09:43:23;40.15;;;26.10;;
42590;SDS011;28218;53.342;-6.216;2023-09-08T09:45:52;42.75;;;26.70;;
42590;SDS011;28218;53.342;-6.216;2023-09-08T09:48:21;36.40;;;25.33;;
42590;SDS011;28218;53.342;-6.216;2023-09-08T09:50:50;43.40;;;26.25;;
42590;SDS011;28218;53.342;-6.216;2023-09-08T09:53:20;39.45;;;24.00;;
42590;SDS011;28218;53.342;-6.216;2023-09-08T09:55:48;46.10;;;25.02;;
42590;SDS011;28218;53.342;-6.216;2023-09-08T09:58:16;42.65;;;25.48;;
42590;SDS011;28218;53.342;-6.216;2023-09-08T10:03:19;45.13;;;26.20;;
42590;SDS011;28218;53.342;-6.216;2023-09-08T10:05:48;37.97;;;25.17;;
42590;SDS011;28218;53.342;-6.216;2023-09-08T10:08:16;36.58;;;26.77;;
42590;SDS011;28218;53.342;-6.216;2023-09-08T10:10:45;37.40;;;25.65;;
42590;SDS011;28218;53.342;-6.216;2023-09-08T10:13:14;38.75;;;25.08;;
42590;SDS011;28218;53.342;-6.216;2023-09-08T10:15:48;34.90;;;25.20;;
42590;SDS011;28218;53.342;-6.216;2023-09-08T10:18:19;35.92;;;24.35;;
42590;SDS011;28218;53.342;-6.216;2023-09-08T10:20:49;43.80;;;25.80;;
42590;SDS011;28218;53.342;-6.216;2023-09-08T10:23:22;38.08;;;23.58;;
42590;SDS011;28218;53.342;-6.216;2023-09-08T10:25:56;35.55;;;25.95;;
42590;SDS011;28218;53.342;-6.216;2023-09-08T10:28:29;42.78;;;26.30;;
42590;SDS011;28218;53.342;-6.216;2023-09-08T10:31:00;37.88;;;26.05;;
42590;SDS011;28218;53.342;-6.216;2023-09-08T10:33:31;37.75;;;24.15;;
42590;SDS011;28218;53.342;-6.216;2023-09-08T10:36:02;40.05;;;24.00;;
42590;SDS011;28218;53.342;-6.216;2023-09-08T10:38:32;34.92;;;22.75;;
42590;SDS011;28218;53.342;-6.216;2023-09-08T10:44:01;45.22;;;26.92;;
42590;SDS011;28218;53.342;-6.216;2023-09-08T10:46:31;49.97;;;28.50;;
42590;SDS011;28218;53.342;-6.216;2023-09-08T10:49:03;44.15;;;27.25;;
42590;SDS011;28218;53.342;-6.216;2023-09-08T10:51:34;51.78;;;27.77;;
42590;SDS011;28218;53.342;-6.216;2023-09-08T10:54:05;50.42;;;28.35;;
42590;SDS011;28218;53.342;-6.216;2023-09-08T10:59:22;42.42;;;27.52;;
42590;SDS011;28218;53.342;-6.216;2023-09-08T11:01:55;44.45;;;27.05;;
42590;SDS011;28218;53.342;-6.216;2023-09-08T11:04:25;37.58;;;25.77;;
42590;SDS011;28218;53.342;-6.216;2023-09-08T11:06:56;40.95;;;27.63;;
42590;SDS011;28218;53.342;-6.216;2023-09-08T11:09:24;41.67;;;29.20;;
42590;SDS011;28218;53.342;-6.216;2023-09-08T11:11:52;45.85;;;30.17;;
42590;SDS011;28218;53.342;-6.216;2023-09-08T11:14:20;42.72;;;27.67;;
42590;SDS011;28218;53.342;-6.216;2023-09-08T11:16:49;44.10;;;27.08;;
42590;SDS011;28218;53.342;-6.216;2023-09-08T11:19:17;41.92;;;27.45;;
42590;SDS011;28218;53.342;-6.216;2023-09-08T11:21:46;43.38;;;26.48;;
42590;SDS011;28218;53.342;-6.216;2023-09-08T11:26:44;34.75;;;21.52;;
42590;SDS011;28218;53.342;-6.216;2023-09-08T11:29:13;43.03;;;25.60;;
42590;SDS011;28218;53.342;-6.216;2023-09-08T11:31:41;33.47;;;22.40;;
42590;SDS011;28218;53.342;-6.216;2023-09-08T11:34:11;34.42;;;24.08;;
42590;SDS011;28218;53.342;-6.216;2023-09-08T11:36:41;37.63;;;23.63;;
42590;SDS011;28218;53.342;-6.216;2023-09-08T11:39:10;31.40;;;23.70;;
42590;SDS011;28218;53.342;-6.216;2023-09-08T11:41:39;35.88;;;23.08;;
42590;SDS011;28218;53.342;-6.216;2023-09-08T11:44:07;31.30;;;22.98;;
42590;SDS011;28218;53.342;-6.216;2023-09-08T11:46:35;38.92;;;24.70;;
42590;SDS011;28218;53.342;-6.216;2023-09-08T11:49:05;43.75;;;26.85;;
42590;SDS011;28218;53.342;-6.216;2023-09-08T11:51:33;46.65;;;28.73;;
42590;SDS011;28218;53.342;-6.216;2023-09-08T11:54:01;45.03;;;28.88;;
42590;SDS011;28218;53.342;-6.216;2023-09-08T11:56:31;41.42;;;27.20;;
42590;SDS011;28218;53.342;-6.216;2023-09-08T11:59:01;36.13;;;25.48;;
42590;SDS011;28218;53.342;-6.216;2023-09-08T12:01:29;37.63;;;23.58;;
42590;SDS011;28218;53.342;-6.216;2023-09-08T12:03:58;39.35;;;25.63;;
42590;SDS011;28218;53.342;-6.216;2023-09-08T12:06:26;35.17;;;23.67;;
42590;SDS011;28218;53.342;-6.216;2023-09-08T12:08:56;37.78;;;25.17;;
42590;SDS011;28218;53.342;-6.216;2023-09-08T12:11:33;37.47;;;23.17;;
42590;SDS011;28218;53.342;-6.216;2023-09-08T12:14:05;37.47;;;25.30;;
42590;SDS011;28218;53.342;-6.216;2023-09-08T12:16:35;37.78;;;26.30;;
42590;SDS011;28218;53.342;-6.216;2023-09-08T12:19:03;38.95;;;26.38;;
42590;SDS011;28218;53.342;-6.216;2023-09-08T12:21:34;42.58;;;26.73;;
42590;SDS011;28218;53.342;-6.216;2023-09-08T12:27:15;46.00;;;27.85;;
42590;SDS011;28218;53.342;-6.216;2023-09-08T12:29:57;42.50;;;27.47;;
42590;SDS011;28218;53.342;-6.216;2023-09-08T12:32:28;36.60;;;24.83;;
42590;SDS011;28218;53.342;-6.216;2023-09-08T12:34:58;45.17;;;24.95;;
42590;SDS011;28218;53.342;-6.216;2023-09-08T12:37:28;44.15;;;26.55;;
42590;SDS011;28218;53.342;-6.216;2023-09-08T12:39:56;38.80;;;23.73;;
42590;SDS011;28218;53.342;-6.216;2023-09-08T12:42:26;39.92;;;25.13;;
42590;SDS011;28218;53.342;-6.216;2023-09-08T12:44:57;40.13;;;24.80;;
42590;SDS011;28218;53.342;-6.216;2023-09-08T12:47:26;34.85;;;23.77;;
42590;SDS011;28218;53.342;-6.216;2023-09-08T12:49:54;37.72;;;24.90;;
42590;SDS011;28218;53.342;-6.216;2023-09-08T12:52:23;35.92;;;24.10;;
42590;SDS011;28218;53.342;-6.216;2023-09-08T12:54:51;33.95;;;23.58;;
42590;SDS011;28218;53.342;-6.216;2023-09-08T12:57:19;35.42;;;24.73;;
42590;SDS011;28218;53.342;-6.216;2023-09-08T12:59:49;44.28;;;24.15;;
42590;SDS011;28218;53.342;-6.216;2023-09-08T13:02:18;47.45;;;24.85;;
42590;SDS011;28218;53.342;-6.216;2023-09-08T13:04:47;34.22;;;24.05;;
42590;SDS011;28218;53.342;-6.216;2023-09-08T13:07:15;39.35;;;25.40;;
42590;SDS011;28218;53.342;-6.216;2023-09-08T13:09:44;33.78;;;24.60;;
42590;SDS011;28218;53.342;-6.216;2023-09-08T13:12:12;38.40;;;26.17;;
42590;SDS011;28218;53.342;-6.216;2023-09-08T13:14:40;39.75;;;26.38;;
42590;SDS011;28218;53.342;-6.216;2023-09-08T13:17:12;36.70;;;25.02;;
42590;SDS011;28218;53.342;-6.216;2023-09-08T13:19:41;39.30;;;26.52;;
42590;SDS011;28218;53.342;-6.216;2023-09-08T13:22:09;41.13;;;27.35;;
42590;SDS011;28218;53.342;-6.216;2023-09-08T13:24:38;42.45;;;26.58;;
42590;SDS011;28218;53.342;-6.216;2023-09-08T13:27:06;43.78;;;26.80;;
42590;SDS011;28218;53.342;-6.216;2023-09-08T13:29:34;44.83;;;27.20;;
42590;SDS011;28218;53.342;-6.216;2023-09-08T13:32:03;39.38;;;26.67;;
42590;SDS011;28218;53.342;-6.216;2023-09-08T13:34:34;34.42;;;21.65;;
42590;SDS011;28218;53.342;-6.216;2023-09-08T13:37:05;35.33;;;24.42;;
42590;SDS011;28218;53.342;-6.216;2023-09-08T13:39:33;45.53;;;26.27;;
42590;SDS011;28218;53.342;-6.216;2023-09-08T13:42:01;42.95;;;28.23;;
42590;SDS011;28218;53.342;-6.216;2023-09-08T13:44:30;48.33;;;30.27;;
42590;SDS011;28218;53.342;-6.216;2023-09-08T13:46:59;43.65;;;26.98;;
42590;SDS011;28218;53.342;-6.216;2023-09-08T13:49:27;46.45;;;26.45;;
42590;SDS011;28218;53.342;-6.216;2023-09-08T13:51:57;40.42;;;27.15;;
42590;SDS011;28218;53.342;-6.216;2023-09-08T13:54:27;41.22;;;26.75;;
42590;SDS011;28218;53.342;-6.216;2023-09-08T13:57:02;41.03;;;26.75;;
42590;SDS011;28218;53.342;-6.216;2023-09-08T13:59:34;39.70;;;26.77;;
42590;SDS011;28218;53.342;-6.216;2023-09-08T14:02:05;46.85;;;27.95;;
42590;SDS011;28218;53.342;-6.216;2023-09-08T14:04:37;39.90;;;27.15;;
42590;SDS011;28218;53.342;-6.216;2023-09-08T14:07:10;36.30;;;23.70;;
42590;SDS011;28218;53.342;-6.216;2023-09-08T14:09:44;36.85;;;21.80;;
42590;SDS011;28218;53.342;-6.216;2023-09-08T14:12:16;29.98;;;20.73;;
42590;SDS011;28218;53.342;-6.216;2023-09-08T14:14:47;35.30;;;22.55;;
42590;SDS011;28218;53.342;-6.216;2023-09-08T14:17:16;32.92;;;20.80;;
42590;SDS011;28218;53.342;-6.216;2023-09-08T14:19:44;31.50;;;19.20;;
42590;SDS011;28218;53.342;-6.216;2023-09-08T14:22:13;34.88;;;22.95;;
42590;SDS011;28218;53.342;-6.216;2023-09-08T14:24:42;38.72;;;24.45;;
42590;SDS011;28218;53.342;-6.216;2023-09-08T14:27:10;36.63;;;23.45;;
42590;SDS011;28218;53.342;-6.216;2023-09-08T14:29:38;36.35;;;18.80;;
42590;SDS011;28218;53.342;-6.216;2023-09-08T14:32:06;29.80;;;17.27;;
42590;SDS011;28218;53.342;-6.216;2023-09-08T14:34:35;34.90;;;20.70;;